Terminal Aerodrome Forecast
Issued by NWS Sioux Falls, SD

Home | Current Version | Previous Version | Text Only | Print | Product List | Glossary On
Versions: 1 2 3 4 5 6 7 8 9 10 11 12 13 14 15 16 17
000
FTUS43 KFSD 032111 AAE
TAFFSD
TAF AMD
KFSD 032111Z 0321/0418 17013G18KT 4SM -SN OVC035
      TEMPO 0321/0323 2SM -SN BKN012
     FM032300 16013KT 6SM -SN OVC035
     FM040000 18011KT P6SM BKN050
     FM040300 19009KT P6SM BKN010
     FM041500 27008KT P6SM SCT015=

USA.gov is the U.S. government's official web portal to all federal, state and local government web resources and services.